createdAt,value
2018-09-09T00:00:50.597Z,14.20
2018-09-09T00:03:19.141Z,15.97
2018-09-09T00:05:47.759Z,14.27
2018-09-09T00:08:16.109Z,14.77
2018-09-09T00:10:44.226Z,15.23
2018-09-09T00:13:12.285Z,13.80
2018-09-09T00:15:40.412Z,14.27
2018-09-09T00:18:08.572Z,14.63
2018-09-09T00:20:36.643Z,14.40
2018-09-09T00:23:04.786Z,13.57
2018-09-09T00:25:32.974Z,15.53
2018-09-09T00:28:01.185Z,14.63
2018-09-09T00:30:29.252Z,14.00
2018-09-09T00:32:57.276Z,13.97
2018-09-09T00:35:25.487Z,14.13
2018-09-09T00:37:53.736Z,14.53
2018-09-09T00:40:21.989Z,13.80
2018-09-09T00:42:50.041Z,13.27
2018-09-09T00:45:18.260Z,15.70
2018-09-09T00:47:46.577Z,13.37
2018-09-09T00:50:20.295Z,14.03
2018-09-09T00:52:53.877Z,14.60
2018-09-09T00:55:21.884Z,13.67
2018-09-09T00:57:50.016Z,14.27
2018-09-09T01:01:24.344Z,14.97
2018-09-09T01:03:52.400Z,14.10
2018-09-09T01:06:20.502Z,14.50
2018-09-09T01:08:49.764Z,15.13
2018-09-09T01:11:17.842Z,13.67
2018-09-09T01:13:45.921Z,14.57
2018-09-09T01:16:14.064Z,12.83
2018-09-09T01:18:42.184Z,15.47
2018-09-09T01:21:10.288Z,14.80
2018-09-09T01:23:38.347Z,16.07
2018-09-09T01:26:06.411Z,14.03
2018-09-09T01:28:34.596Z,14.47
2018-09-09T01:31:02.528Z,13.67
2018-09-09T01:33:30.542Z,14.50
2018-09-09T01:35:58.569Z,14.00
2018-09-09T01:38:26.703Z,13.27
2018-09-09T01:40:54.756Z,14.67
2018-09-09T01:43:22.765Z,14.77
2018-09-09T01:45:50.780Z,14.50
2018-09-09T01:48:18.875Z,14.60
2018-09-09T01:50:46.952Z,14.37
2018-09-09T01:53:15.055Z,14.53
2018-09-09T01:55:43.194Z,13.43
2018-09-09T01:58:11.325Z,14.47
2018-09-09T02:00:39.364Z,14.03
2018-09-09T02:03:07.457Z,16.03
2018-09-09T02:05:35.432Z,15.50
2018-09-09T02:08:03.454Z,13.90
2018-09-09T02:10:31.458Z,15.10
2018-09-09T02:12:59.574Z,14.90
2018-09-09T02:15:27.583Z,16.70
2018-09-09T02:17:55.615Z,15.80
2018-09-09T02:20:23.782Z,13.77
2018-09-09T02:22:51.869Z,14.40
2018-09-09T02:25:19.894Z,14.90
2018-09-09T02:27:47.948Z,13.67
2018-09-09T02:30:16.037Z,14.13
2018-09-09T02:32:44.120Z,14.50
2018-09-09T02:35:12.271Z,13.70
2018-09-09T02:37:40.432Z,13.67
2018-09-09T02:40:08.626Z,14.73
2018-09-09T02:42:36.769Z,13.87
2018-09-09T02:45:05.008Z,13.57
2018-09-09T02:47:33.333Z,14.53
2018-09-09T02:50:01.372Z,12.13
2018-09-09T02:52:29.426Z,15.43
2018-09-09T02:54:57.468Z,14.63
2018-09-09T02:57:25.513Z,14.17
2018-09-09T02:59:53.589Z,15.33
2018-09-09T03:02:21.756Z,15.00
2018-09-09T03:04:49.807Z,12.97
2018-09-09T03:07:17.950Z,15.40
2018-09-09T03:09:45.970Z,13.53
2018-09-09T03:12:14.015Z,15.00
2018-09-09T03:14:42.037Z,13.47
2018-09-09T03:17:10.160Z,14.87
2018-09-09T03:19:38.205Z,14.70
2018-09-09T03:22:06.206Z,15.10
2018-09-09T03:24:34.277Z,14.03
2018-09-09T03:27:02.510Z,13.97
2018-09-09T03:29:30.683Z,14.30
2018-09-09T03:31:58.878Z,14.57
2018-09-09T03:34:26.948Z,14.17
2018-09-09T03:36:54.984Z,14.77
2018-09-09T03:39:23.176Z,13.97
2018-09-09T03:41:51.312Z,13.57
2018-09-09T03:44:19.481Z,13.63
2018-09-09T03:46:47.595Z,13.63
2018-09-09T03:49:15.662Z,13.70
2018-09-09T03:51:43.811Z,15.30
2018-09-09T03:54:12.048Z,14.33
2018-09-09T03:56:40.154Z,14.17
2018-09-09T03:59:08.297Z,15.23
2018-09-09T04:01:36.507Z,12.93
2018-09-09T04:04:04.514Z,13.13
2018-09-09T04:06:32.823Z,14.17
2018-09-09T04:09:01.208Z,14.07
2018-09-09T04:11:29.305Z,13.87
2018-09-09T04:13:57.608Z,14.63
2018-09-09T04:16:25.756Z,13.80
2018-09-09T04:18:53.854Z,12.47
2018-09-09T04:21:21.936Z,15.37
2018-09-09T04:23:50.037Z,12.90
2018-09-09T04:26:18.137Z,15.87
2018-09-09T04:28:46.437Z,13.40
2018-09-09T04:31:14.583Z,15.77
2018-09-09T04:33:42.758Z,14.23
2018-09-09T04:36:10.881Z,13.70
2018-09-09T04:38:38.986Z,13.63
2018-09-09T04:41:07.206Z,12.67
2018-09-09T04:43:35.275Z,13.30
2018-09-09T04:46:03.416Z,13.77
2018-09-09T04:48:31.670Z,12.33
2018-09-09T04:50:59.726Z,13.60
2018-09-09T04:53:27.816Z,13.03
2018-09-09T04:55:55.994Z,12.77
2018-09-09T04:58:24.199Z,13.67
2018-09-09T05:00:52.463Z,10.97
2018-09-09T05:03:20.727Z,11.27
2018-09-09T05:05:48.896Z,11.90
2018-09-09T05:08:18.563Z,11.53
2018-09-09T05:10:47.093Z,12.23
2018-09-09T05:13:15.265Z,12.47
2018-09-09T05:15:43.539Z,11.07
2018-09-09T05:18:11.988Z,11.67
2018-09-09T05:20:40.158Z,11.23
2018-09-09T05:23:08.675Z,10.40
2018-09-09T05:25:36.928Z,11.70
2018-09-09T05:28:05.163Z,11.47
2018-09-09T05:30:33.701Z,9.73
2018-09-09T05:33:02.304Z,8.90
2018-09-09T05:35:30.767Z,8.57
2018-09-09T05:37:58.988Z,9.07
2018-09-09T05:40:27.067Z,9.40
2018-09-09T05:42:55.231Z,9.97
2018-09-09T05:45:23.450Z,10.77
2018-09-09T05:47:51.743Z,10.17
2018-09-09T05:50:19.966Z,9.37
2018-09-09T05:52:49.154Z,11.03
2018-09-09T05:55:17.726Z,11.07
2018-09-09T05:57:47.112Z,11.40
2018-09-09T06:00:16.666Z,10.43
2018-09-09T06:02:45.372Z,10.93
2018-09-09T06:05:15.615Z,11.60
2018-09-09T06:07:44.735Z,11.77
2018-09-09T06:10:14.275Z,14.53
2018-09-09T06:12:43.312Z,12.40
2018-09-09T06:15:12.361Z,10.80
2018-09-09T06:17:41.859Z,11.03
2018-09-09T06:20:10.355Z,10.93
2018-09-09T06:22:41.035Z,11.23
2018-09-09T06:25:10.554Z,11.03
2018-09-09T06:27:41.358Z,10.50
2018-09-09T06:30:10.761Z,12.83
2018-09-09T06:32:40.190Z,12.33
2018-09-09T06:35:09.202Z,11.67
2018-09-09T06:37:38.811Z,11.43
2018-09-09T06:40:08.319Z,12.60
2018-09-09T06:42:38.525Z,13.60
2018-09-09T06:45:08.575Z,12.17
2018-09-09T06:47:39.428Z,12.27
2018-09-09T06:50:08.108Z,12.50
2018-09-09T06:52:38.078Z,12.73
2018-09-09T06:55:08.883Z,13.00
2018-09-09T06:57:37.827Z,12.13
2018-09-09T07:00:06.481Z,13.57
2018-09-09T07:02:35.157Z,12.90
2018-09-09T07:05:03.526Z,12.30
2018-09-09T07:07:33.276Z,12.83
2018-09-09T07:10:01.702Z,13.47
2018-09-09T07:12:30.337Z,12.83
2018-09-09T07:15:00.804Z,13.33
2018-09-09T07:17:29.674Z,11.90
2018-09-09T07:19:59.030Z,12.73
2018-09-09T07:22:27.841Z,13.07
2018-09-09T07:24:57.170Z,13.93
2018-09-09T07:27:26.057Z,11.97
2018-09-09T07:29:54.796Z,14.13
2018-09-09T07:32:23.283Z,12.60
2018-09-09T07:34:52.037Z,12.40
2018-09-09T07:37:21.341Z,12.70
2018-09-09T07:39:50.246Z,12.67
2018-09-09T07:42:18.735Z,11.80
2018-09-09T07:44:49.282Z,12.00
2018-09-09T07:47:17.866Z,12.50
2018-09-09T07:49:46.461Z,11.33
2018-09-09T07:52:15.048Z,12.13
2018-09-09T07:54:43.424Z,12.50
2018-09-09T07:57:11.912Z,11.20
2018-09-09T07:59:40.903Z,12.20
2018-09-09T08:02:11.862Z,11.63
2018-09-09T08:04:41.225Z,12.03
2018-09-09T08:07:09.656Z,10.23
2018-09-09T08:09:38.413Z,11.90
2018-09-09T08:12:06.936Z,12.47
2018-09-09T08:14:36.179Z,12.10
2018-09-09T08:17:06.101Z,10.90
2018-09-09T08:19:34.982Z,10.63
2018-09-09T08:22:03.840Z,9.53
2018-09-09T08:24:32.937Z,10.97
2018-09-09T08:27:04.239Z,10.70
2018-09-09T08:29:34.641Z,10.17
2018-09-09T08:32:03.460Z,10.23
2018-09-09T08:34:32.135Z,10.50
2018-09-09T08:37:03.177Z,11.60
2018-09-09T08:39:32.050Z,9.73
2018-09-09T08:42:01.476Z,10.77
2018-09-09T08:44:30.849Z,10.47
2018-09-09T08:47:01.151Z,10.33
2018-09-09T08:49:32.944Z,10.50
2018-09-09T08:52:01.479Z,9.63
2018-09-09T08:54:30.484Z,10.93
2018-09-09T08:57:03.580Z,9.60
2018-09-09T08:59:33.358Z,9.30
2018-09-09T09:02:02.310Z,10.03
2018-09-09T09:04:30.975Z,10.40
2018-09-09T09:07:01.932Z,9.63
2018-09-09T09:09:31.722Z,9.40
2018-09-09T09:12:08.364Z,9.77
2018-09-09T09:14:36.923Z,9.07
2018-09-09T09:17:07.213Z,9.60
2018-09-09T09:19:36.547Z,9.93
2018-09-09T09:22:06.019Z,9.10
2018-09-09T09:24:35.029Z,9.67
2018-09-09T09:27:03.702Z,9.57
2018-09-09T09:29:39.472Z,9.07
2018-09-09T09:32:09.032Z,8.90
2018-09-09T09:34:38.963Z,8.43
2018-09-09T09:37:08.663Z,9.27
2018-09-09T09:39:37.319Z,8.63
2018-09-09T09:42:06.028Z,7.77
2018-09-09T09:44:34.588Z,8.43
2018-09-09T09:47:03.393Z,8.95
2018-09-09T09:49:32.035Z,7.90
2018-09-09T09:52:00.997Z,8.38
2018-09-09T09:54:29.650Z,9.30
2018-09-09T09:56:58.280Z,9.10
2018-09-09T09:59:26.872Z,7.37
2018-09-09T10:01:59.250Z,9.05
2018-09-09T10:04:28.110Z,7.77
2018-09-09T10:06:56.992Z,7.72
2018-09-09T10:09:27.617Z,7.75
2018-09-09T10:11:59.122Z,7.70
2018-09-09T10:14:27.691Z,7.70
2018-09-09T10:16:56.495Z,7.58
2018-09-09T10:19:25.180Z,7.13
2018-09-09T10:21:53.670Z,7.33
2018-09-09T10:24:22.470Z,7.70
2018-09-09T10:26:52.491Z,7.30
2018-09-09T10:29:21.825Z,7.87
2018-09-09T10:31:50.413Z,7.87
2018-09-09T10:34:18.892Z,7.10
2018-09-09T10:36:48.349Z,7.10
2018-09-09T10:39:17.077Z,8.27
2018-09-09T10:41:47.005Z,7.72
2018-09-09T10:44:15.710Z,7.15
2018-09-09T10:46:44.169Z,6.67
2018-09-09T10:49:12.835Z,5.62
2018-09-09T10:51:41.532Z,7.05
2018-09-09T10:54:10.038Z,6.50
2018-09-09T10:56:38.613Z,7.12
2018-09-09T10:59:06.964Z,7.15
2018-09-09T11:01:35.236Z,7.35
2018-09-09T11:04:03.756Z,6.65
2018-09-09T11:06:32.890Z,6.50
2018-09-09T11:09:03.347Z,5.58
2018-09-09T11:11:33.973Z,6.42
2018-09-09T11:14:03.429Z,5.85
2018-09-09T11:16:32.587Z,6.80
2018-09-09T11:19:01.314Z,7.20
2018-09-09T11:21:29.814Z,5.80
2018-09-09T11:23:58.966Z,5.58
2018-09-09T11:26:27.777Z,6.53
2018-09-09T11:28:56.006Z,6.72
2018-09-09T11:31:24.677Z,8.55
2018-09-09T11:33:53.471Z,8.55
2018-09-09T11:36:23.114Z,6.95
2018-09-09T11:38:52.032Z,8.20
2018-09-09T11:41:20.732Z,6.22
2018-09-09T11:43:49.167Z,6.87
2018-09-09T11:46:17.636Z,6.30
2018-09-09T11:48:46.118Z,7.42
2018-09-09T11:51:15.835Z,6.45
2018-09-09T11:53:44.321Z,7.30
2018-09-09T11:56:13.423Z,7.15
2018-09-09T11:58:44.616Z,6.78
2018-09-09T12:01:13.539Z,7.35
2018-09-09T12:03:42.642Z,6.62
2018-09-09T12:06:11.152Z,5.50
2018-09-09T12:08:40.355Z,6.20
2018-09-09T12:11:08.723Z,5.70
2018-09-09T12:13:37.229Z,5.12
2018-09-09T12:16:05.603Z,5.85
2018-09-09T12:18:34.063Z,6.37
2018-09-09T12:21:02.797Z,7.33
2018-09-09T12:23:31.288Z,6.67
2018-09-09T12:26:00.790Z,7.67
2018-09-09T12:28:29.841Z,6.50
2018-09-09T12:30:59.840Z,6.30
2018-09-09T12:33:29.152Z,5.37
2018-09-09T12:35:58.375Z,6.87
2018-09-09T12:38:27.207Z,5.40
2018-09-09T12:40:56.255Z,7.22
2018-09-09T12:43:30.882Z,7.33
2018-09-09T12:46:05.290Z,7.08
2018-09-09T12:48:39.312Z,8.47
2018-09-09T12:51:09.010Z,12.13
2018-09-09T12:53:38.347Z,6.62
2018-09-09T12:56:07.233Z,5.10
2018-09-09T12:58:36.106Z,5.70
2018-09-09T13:01:04.520Z,5.45
2018-09-09T13:03:33.154Z,6.67
2018-09-09T13:06:02.125Z,6.62
2018-09-09T13:08:30.922Z,5.45
2018-09-09T13:10:59.502Z,5.37
2018-09-09T13:13:28.305Z,5.28
2018-09-09T13:16:01.317Z,5.90
2018-09-09T13:18:35.708Z,4.97
2018-09-09T13:21:08.014Z,6.00
2018-09-09T13:23:38.710Z,5.17
2018-09-09T13:26:07.136Z,5.12
2018-09-09T13:28:35.657Z,5.42
2018-09-09T13:31:04.232Z,5.92
2018-09-09T13:33:32.462Z,5.17
2018-09-09T13:36:00.752Z,5.55
2018-09-09T13:38:31.497Z,5.25
2018-09-09T13:41:00.134Z,4.92
2018-09-09T13:43:29.226Z,8.28
2018-09-09T13:45:57.681Z,7.78
2018-09-09T13:48:26.141Z,5.92
2018-09-09T13:50:54.430Z,6.63
2018-09-09T13:53:22.876Z,5.92
2018-09-09T13:55:51.454Z,5.92
2018-09-09T13:58:21.490Z,4.55
2018-09-09T14:00:50.436Z,7.12
2018-09-09T14:03:18.689Z,5.03
2018-09-09T14:05:47.247Z,4.30
2018-09-09T14:08:15.546Z,3.98
2018-09-09T14:10:43.686Z,4.03
2018-09-09T14:13:11.998Z,3.90
2018-09-09T14:15:40.268Z,4.67
2018-09-09T14:18:08.539Z,4.05
2018-09-09T14:20:39.174Z,4.70
2018-09-09T14:23:07.769Z,3.98
2018-09-09T14:25:36.080Z,3.70
2018-09-09T14:28:08.938Z,4.35
2018-09-09T14:30:38.905Z,4.35
2018-09-09T14:33:07.698Z,4.37
2018-09-09T14:35:37.038Z,4.27
2018-09-09T14:38:07.966Z,4.87
2018-09-09T14:40:36.987Z,4.53
2018-09-09T14:43:07.327Z,5.23
2018-09-09T14:45:39.052Z,3.70
2018-09-09T14:48:12.041Z,5.10
2018-09-09T14:50:44.447Z,9.33
2018-09-09T14:53:17.626Z,4.53
2018-09-09T14:55:48.739Z,3.57
2018-09-09T14:58:17.168Z,4.30
2018-09-09T15:00:45.790Z,3.97
2018-09-09T15:03:14.186Z,4.23
2018-09-09T15:05:42.628Z,4.37
2018-09-09T15:08:10.948Z,3.57
2018-09-09T15:10:39.381Z,3.87
2018-09-09T15:13:08.118Z,14.07
2018-09-09T15:15:36.437Z,5.30
2018-09-09T15:18:04.997Z,5.03
2018-09-09T15:20:33.594Z,4.73
2018-09-09T15:23:01.804Z,4.07
2018-09-09T15:25:29.905Z,4.23
2018-09-09T15:27:58.188Z,4.00
2018-09-09T15:30:26.866Z,3.83
2018-09-09T15:32:55.564Z,4.77
2018-09-09T15:35:23.757Z,3.73
2018-09-09T15:37:53.169Z,3.97
2018-09-09T15:40:22.004Z,4.70
2018-09-09T15:42:50.742Z,3.60
2018-09-09T15:45:20.052Z,4.47
2018-09-09T15:47:48.524Z,5.43
2018-09-09T15:50:18.362Z,4.93
2018-09-09T15:52:46.729Z,4.60
2018-09-09T15:55:15.182Z,4.60
2018-09-09T15:57:43.524Z,4.30
2018-09-09T16:00:12.114Z,5.03
2018-09-09T16:02:40.370Z,4.70
2018-09-09T16:05:08.892Z,5.00
2018-09-09T16:07:37.707Z,4.17
2018-09-09T16:10:06.643Z,4.17
2018-09-09T16:12:34.868Z,4.43
2018-09-09T16:15:03.414Z,4.60
2018-09-09T16:17:31.816Z,4.47
2018-09-09T16:20:00.435Z,5.03
2018-09-09T16:22:29.064Z,5.03
2018-09-09T16:24:58.035Z,5.17
2018-09-09T16:27:26.394Z,4.53
2018-09-09T16:29:54.731Z,5.07
2018-09-09T16:32:23.245Z,4.47
2018-09-09T16:34:51.618Z,5.47
2018-09-09T16:37:20.542Z,5.60
2018-09-09T16:39:49.132Z,4.80
2018-09-09T16:42:17.517Z,5.10
2018-09-09T16:44:45.815Z,5.57
2018-09-09T16:47:14.163Z,5.37
2018-09-09T16:49:42.782Z,5.53
2018-09-09T16:52:11.090Z,5.80
2018-09-09T16:54:39.513Z,5.60
2018-09-09T16:57:07.885Z,5.30
2018-09-09T16:59:36.454Z,5.37
2018-09-09T17:02:04.866Z,6.00
2018-09-09T17:04:33.227Z,5.20
2018-09-09T17:07:01.882Z,5.07
2018-09-09T17:09:30.268Z,5.00
2018-09-09T17:11:58.521Z,5.37
2018-09-09T17:14:26.903Z,5.00
2018-09-09T17:16:55.235Z,5.40
2018-09-09T17:19:23.596Z,5.33
2018-09-09T17:21:51.963Z,4.60
2018-09-09T17:24:20.306Z,5.00
2018-09-09T17:26:48.692Z,5.30
2018-09-09T17:29:18.030Z,5.37
2018-09-09T17:31:46.455Z,5.37
2018-09-09T17:34:14.768Z,6.10
2018-09-09T17:36:42.968Z,5.80
2018-09-09T17:39:11.678Z,5.40
2018-09-09T17:41:40.501Z,6.03
2018-09-09T17:44:08.760Z,5.03
2018-09-09T17:46:37.012Z,5.40
2018-09-09T17:49:05.696Z,5.87
2018-09-09T17:51:33.878Z,5.40
2018-09-09T17:54:02.167Z,5.20
2018-09-09T17:56:30.351Z,4.97
2018-09-09T17:58:58.494Z,5.77
2018-09-09T18:01:26.799Z,5.50
2018-09-09T18:03:54.958Z,5.33
2018-09-09T18:06:23.132Z,5.40
2018-09-09T18:08:51.392Z,5.47
2018-09-09T18:11:19.840Z,4.73
2018-09-09T18:13:48.033Z,5.93
2018-09-09T18:16:16.468Z,5.83
2018-09-09T18:18:44.728Z,5.67
2018-09-09T18:21:13.051Z,4.53
2018-09-09T18:23:41.267Z,5.00
2018-09-09T18:26:09.614Z,4.33
2018-09-09T18:28:37.783Z,5.50
2018-09-09T18:31:06.157Z,5.43
2018-09-09T18:33:34.506Z,4.60
2018-09-09T18:36:02.623Z,5.00
2018-09-09T18:38:30.946Z,5.00
2018-09-09T18:40:59.364Z,5.87
2018-09-09T18:43:27.620Z,4.80
2018-09-09T18:45:56.629Z,5.40
2018-09-09T18:48:25.093Z,4.77
2018-09-09T18:50:53.342Z,5.07
2018-09-09T18:53:21.512Z,5.67
2018-09-09T18:55:49.668Z,4.43
2018-09-09T18:58:18.021Z,4.93
2018-09-09T19:00:46.386Z,5.00
2018-09-09T19:03:14.565Z,4.53
2018-09-09T19:05:42.652Z,5.00
2018-09-09T19:08:10.729Z,4.93
2018-09-09T19:10:39.129Z,4.73
2018-09-09T19:13:07.694Z,5.00
2018-09-09T19:15:36.082Z,5.00
2018-09-09T19:18:04.532Z,5.70
2018-09-09T19:20:33.137Z,5.17
2018-09-09T19:23:01.460Z,5.50
2018-09-09T19:25:29.558Z,5.37
2018-09-09T19:27:57.776Z,5.23
2018-09-09T19:30:26.091Z,4.80
2018-09-09T19:32:54.320Z,5.47
2018-09-09T19:35:22.531Z,5.13
2018-09-09T19:37:50.869Z,4.60
2018-09-09T19:40:19.139Z,5.40
2018-09-09T19:42:47.311Z,4.70
2018-09-09T19:45:15.683Z,5.10
2018-09-09T19:47:43.979Z,5.40
2018-09-09T19:50:12.220Z,4.97
2018-09-09T19:52:40.549Z,4.73
2018-09-09T19:55:08.709Z,5.20
2018-09-09T19:57:36.871Z,4.50
2018-09-09T20:00:05.299Z,5.07
2018-09-09T20:02:33.535Z,4.60
2018-09-09T20:05:01.658Z,5.00
2018-09-09T20:07:29.720Z,4.60
2018-09-09T20:09:57.869Z,5.37
2018-09-09T20:12:26.076Z,5.03
2018-09-09T20:14:54.514Z,4.83
2018-09-09T20:17:22.595Z,4.93
2018-09-09T20:19:50.735Z,4.50
2018-09-09T20:22:18.911Z,4.23
2018-09-09T20:24:47.107Z,4.97
2018-09-09T20:27:15.296Z,4.80
2018-09-09T20:29:44.559Z,5.10
2018-09-09T20:32:12.716Z,4.90
2018-09-09T20:34:40.751Z,4.67
2018-09-09T20:37:08.887Z,4.97
2018-09-09T20:39:37.231Z,5.03
2018-09-09T20:42:05.821Z,5.03
2018-09-09T20:44:33.975Z,4.40
2018-09-09T20:49:22.997Z,5.23
2018-09-09T20:51:51.102Z,6.17
2018-09-09T20:54:19.350Z,4.57
2018-09-09T20:56:47.443Z,4.97
2018-09-09T20:59:16.600Z,4.97
2018-09-09T21:01:44.692Z,4.63
2018-09-09T21:04:12.748Z,5.30
2018-09-09T21:06:40.918Z,5.70
2018-09-09T21:09:10.372Z,5.43
2018-09-09T21:11:38.447Z,5.37
2018-09-09T21:14:06.752Z,5.00
2018-09-09T21:16:34.842Z,5.60
2018-09-09T21:19:02.998Z,4.57
2018-09-09T21:21:31.243Z,5.33
2018-09-09T21:23:59.506Z,5.10
2018-09-09T21:26:27.578Z,5.10
2018-09-09T21:28:55.706Z,4.77
2018-09-09T21:31:23.754Z,5.00
2018-09-09T21:33:51.720Z,5.10
2018-09-09T21:36:19.786Z,4.40
2018-09-09T21:38:47.902Z,5.17
2018-09-09T21:41:16.032Z,5.00
2018-09-09T21:43:44.081Z,5.50
2018-09-09T21:46:12.188Z,5.17
2018-09-09T21:48:40.364Z,4.17
2018-09-09T21:51:08.548Z,4.87
2018-09-09T21:53:36.739Z,4.83
2018-09-09T21:56:04.774Z,4.73
2018-09-09T21:58:32.851Z,4.70
2018-09-09T22:01:07.357Z,4.53
2018-09-09T22:03:35.417Z,5.73
2018-09-09T22:06:03.484Z,4.80
2018-09-09T22:08:31.509Z,4.93
2018-09-09T22:10:59.615Z,4.77
2018-09-09T22:13:27.671Z,4.67
2018-09-09T22:15:55.740Z,4.93
2018-09-09T22:18:23.819Z,5.30
2018-09-09T22:20:51.894Z,4.30
2018-09-09T22:23:19.848Z,5.23
2018-09-09T22:25:47.930Z,4.67
2018-09-09T22:28:16.076Z,5.50
2018-09-09T22:30:44.143Z,4.43
2018-09-09T22:33:12.162Z,4.87
2018-09-09T22:35:40.186Z,5.07
2018-09-09T22:38:08.188Z,4.90
2018-09-09T22:40:36.257Z,5.23
2018-09-09T22:43:04.580Z,4.40
2018-09-09T22:45:32.695Z,4.73
2018-09-09T22:48:00.742Z,4.87
2018-09-09T22:50:28.890Z,5.37
2018-09-09T22:52:56.902Z,5.53
2018-09-09T22:55:24.859Z,5.00
2018-09-09T22:57:53.431Z,5.37
2018-09-09T23:00:22.500Z,4.57
2018-09-09T23:02:50.559Z,4.70
2018-09-09T23:05:18.665Z,5.17
2018-09-09T23:07:46.740Z,4.83
2018-09-09T23:10:14.891Z,5.63
2018-09-09T23:12:42.950Z,5.13
2018-09-09T23:15:11.151Z,5.60
2018-09-09T23:17:39.263Z,5.03
2018-09-09T23:20:07.631Z,4.83
2018-09-09T23:22:35.952Z,5.90
2018-09-09T23:25:04.159Z,5.33
2018-09-09T23:27:32.168Z,4.80
2018-09-09T23:30:00.387Z,6.07
2018-09-09T23:32:28.587Z,5.07
2018-09-09T23:34:56.652Z,4.73
2018-09-09T23:37:24.791Z,4.67
2018-09-09T23:39:52.894Z,5.60
2018-09-09T23:42:20.962Z,5.13
2018-09-09T23:44:49.169Z,5.13
2018-09-09T23:47:17.146Z,5.27
2018-09-09T23:49:45.234Z,5.50
2018-09-09T23:52:13.254Z,5.40
2018-09-09T23:54:41.425Z,5.47
2018-09-09T23:57:09.475Z,5.50
2018-09-09T23:59:37.741Z,4.97
